createdAt,value
2022-09-15T00:00:30.202Z,3.47
2022-09-15T00:01:17.158Z,3.28
2022-09-15T00:02:04.168Z,3.42
2022-09-15T00:02:51.231Z,3.40
2022-09-15T00:03:38.623Z,3.28
2022-09-15T00:04:25.659Z,3.30
2022-09-15T00:05:12.920Z,3.47
2022-09-15T00:05:59.769Z,3.60
2022-09-15T00:06:46.720Z,3.37
2022-09-15T00:07:33.445Z,3.70
2022-09-15T00:08:20.401Z,3.50
2022-09-15T00:09:07.247Z,3.30
2022-09-15T00:09:53.930Z,3.60
2022-09-15T00:10:52.700Z,3.47
2022-09-15T00:11:39.639Z,3.50
2022-09-15T00:12:27.419Z,3.37
2022-09-15T00:13:15.020Z,3.50
2022-09-15T00:14:03.698Z,3.53
2022-09-15T00:14:50.361Z,3.40
2022-09-15T00:15:37.111Z,3.05
2022-09-15T00:16:25.462Z,3.72
2022-09-15T00:17:12.275Z,3.40
2022-09-15T00:17:59.060Z,3.50
2022-09-15T00:18:46.600Z,3.05
2022-09-15T00:19:33.360Z,3.28
2022-09-15T00:20:21.570Z,3.00
2022-09-15T00:21:11.607Z,3.47
2022-09-15T00:21:58.462Z,3.47
2022-09-15T00:22:45.250Z,3.65
2022-09-15T00:23:31.960Z,3.55
2022-09-15T00:24:18.699Z,3.45
2022-09-15T00:25:06.162Z,3.22
2022-09-15T00:25:53.452Z,2.87
2022-09-15T00:26:40.299Z,3.50
2022-09-15T00:27:27.582Z,3.15
2022-09-15T00:28:15.861Z,3.60
2022-09-15T00:29:03.360Z,3.10
2022-09-15T00:29:50.059Z,3.47
2022-09-15T00:30:49.781Z,3.42
2022-09-15T00:31:36.690Z,4.15
2022-09-15T00:32:23.489Z,3.35
2022-09-15T00:33:10.641Z,3.70
2022-09-15T00:34:02.611Z,3.20
2022-09-15T00:34:51.019Z,3.50
2022-09-15T00:35:39.484Z,3.15
2022-09-15T00:36:26.943Z,3.30
2022-09-15T00:37:13.899Z,3.12
2022-09-15T00:38:00.660Z,3.00
2022-09-15T00:38:47.649Z,3.60
2022-09-15T00:39:34.770Z,3.20
2022-09-15T00:40:21.566Z,3.03
2022-09-15T00:41:10.600Z,2.95
2022-09-15T00:41:57.398Z,3.17
2022-09-15T00:42:44.280Z,3.12
2022-09-15T00:43:51.707Z,3.05
2022-09-15T00:44:53.890Z,3.05
2022-09-15T00:45:40.734Z,3.87
2022-09-15T00:46:33.920Z,2.90
2022-09-15T00:47:29.479Z,2.80
2022-09-15T00:48:19.619Z,3.10
2022-09-15T00:49:07.980Z,3.72
2022-09-15T00:49:59.781Z,3.08
2022-09-15T00:50:53.476Z,3.30
2022-09-15T00:51:51.290Z,3.30
2022-09-15T00:52:49.671Z,3.35
2022-09-15T00:53:37.281Z,3.17
2022-09-15T00:54:36.740Z,3.45
2022-09-15T00:55:36.047Z,3.25
2022-09-15T00:56:23.790Z,3.10
2022-09-15T00:57:16.109Z,4.00
2022-09-15T00:58:08.390Z,3.35
2022-09-15T00:58:59.579Z,2.85
2022-09-15T00:59:47.430Z,3.30
2022-09-15T01:00:35.099Z,2.75
2022-09-15T01:01:24.067Z,3.20
2022-09-15T01:02:21.889Z,3.35
2022-09-15T01:03:08.651Z,2.85
2022-09-15T01:03:55.599Z,3.17
2022-09-15T01:04:42.939Z,3.17
2022-09-15T01:05:43.181Z,3.15
2022-09-15T01:06:52.701Z,3.17
2022-09-15T01:07:47.260Z,2.78
2022-09-15T01:08:38.820Z,3.10
2022-09-15T01:09:34.347Z,3.30
2022-09-15T01:10:28.213Z,3.17
2022-09-15T01:11:17.201Z,2.70
2022-09-15T01:12:04.827Z,3.00
2022-09-15T01:12:53.300Z,2.85
2022-09-15T01:13:40.050Z,2.95
2022-09-15T01:14:26.840Z,3.10
2022-09-15T01:15:13.900Z,2.72
2022-09-15T01:16:21.114Z,3.33
2022-09-15T01:17:50.212Z,3.10
2022-09-15T01:18:55.181Z,2.70
2022-09-15T01:20:16.221Z,3.25
2022-09-15T01:22:04.069Z,2.87
2022-09-15T01:22:57.015Z,2.87
2022-09-15T01:23:55.679Z,3.30
2022-09-15T01:25:14.500Z,2.80
2022-09-15T01:26:19.381Z,2.70
2022-09-15T01:28:01.719Z,2.45
2022-09-15T01:29:22.350Z,2.97
2022-09-15T01:30:22.902Z,3.12
2022-09-15T01:31:25.760Z,3.00
2022-09-15T01:33:04.286Z,3.30
2022-09-15T01:33:54.089Z,2.90
2022-09-15T01:34:54.040Z,2.53
2022-09-15T01:35:59.549Z,2.53
2022-09-15T01:36:57.050Z,2.80
2022-09-15T01:38:12.072Z,2.92
2022-09-15T01:39:03.060Z,3.00
2022-09-15T01:39:50.605Z,2.62
2022-09-15T01:40:42.179Z,2.85
2022-09-15T01:41:39.170Z,2.60
2022-09-15T01:42:27.712Z,2.80
2022-09-15T01:43:16.250Z,3.10
2022-09-15T01:44:08.843Z,2.95
2022-09-15T01:44:59.630Z,2.37
2022-09-15T01:45:47.583Z,3.22
2022-09-15T01:46:38.980Z,3.60
2022-09-15T01:47:28.140Z,2.70
2022-09-15T01:48:16.685Z,2.65
2022-09-15T01:49:04.569Z,2.87
2022-09-15T01:49:55.263Z,3.10
2022-09-15T01:50:49.931Z,2.92
2022-09-15T01:51:37.337Z,2.97
2022-09-15T01:52:24.759Z,3.00
2022-09-15T01:53:17.109Z,3.17
2022-09-15T01:54:05.940Z,3.47
2022-09-15T01:54:56.679Z,3.20
2022-09-15T01:55:49.103Z,3.17
2022-09-15T01:56:37.728Z,3.00
2022-09-15T01:57:24.707Z,2.70
2022-09-15T01:58:11.591Z,2.60
2022-09-15T01:58:58.380Z,3.15
2022-09-15T01:59:45.169Z,3.00
2022-09-15T02:00:34.343Z,2.92
2022-09-15T02:02:06.600Z,3.03
2022-09-15T02:02:58.520Z,2.92
2022-09-15T02:03:45.220Z,2.67
2022-09-15T02:04:38.790Z,2.80
2022-09-15T02:05:30.469Z,3.00
2022-09-15T02:06:33.959Z,2.33
2022-09-15T02:07:32.081Z,2.80
2022-09-15T02:08:25.547Z,3.10
2022-09-15T02:09:15.409Z,2.90
2022-09-15T02:10:19.240Z,2.87
2022-09-15T02:11:20.509Z,2.95
2022-09-15T02:12:43.673Z,3.45
2022-09-15T02:13:43.123Z,2.75
2022-09-15T02:14:39.260Z,2.67
2022-09-15T02:15:37.389Z,2.72
2022-09-15T02:16:26.216Z,2.80
2022-09-15T02:17:16.780Z,3.05
2022-09-15T02:19:06.850Z,2.78
2022-09-15T02:19:56.910Z,2.83
2022-09-15T02:20:57.900Z,2.80
2022-09-15T02:22:08.190Z,3.47
2022-09-15T02:22:57.391Z,3.30
2022-09-15T02:23:51.100Z,2.83
2022-09-15T02:24:44.560Z,3.20
2022-09-15T02:25:34.302Z,3.20
2022-09-15T02:26:24.742Z,2.60
2022-09-15T02:27:24.219Z,2.65
2022-09-15T02:28:12.151Z,2.80
2022-09-15T02:29:00.670Z,3.15
2022-09-15T02:29:48.039Z,2.80
2022-09-15T02:30:40.690Z,3.00
2022-09-15T02:31:28.244Z,4.32
2022-09-15T02:32:16.830Z,3.12
2022-09-15T02:33:06.920Z,2.80
2022-09-15T02:34:04.059Z,2.90
2022-09-15T02:34:51.840Z,2.87
2022-09-15T02:35:39.500Z,2.90
2022-09-15T02:36:27.779Z,3.00
2022-09-15T02:37:15.199Z,2.70
2022-09-15T02:38:03.609Z,2.58
2022-09-15T02:38:53.760Z,2.83
2022-09-15T02:39:44.412Z,2.62
2022-09-15T02:40:32.513Z,2.60
2022-09-15T02:41:19.999Z,3.00
2022-09-15T02:42:07.171Z,2.67
2022-09-15T02:42:56.163Z,2.12
2022-09-15T02:43:47.770Z,3.08
2022-09-15T02:44:35.450Z,2.58
2022-09-15T02:45:23.245Z,2.90
2022-09-15T02:46:10.074Z,2.70
2022-09-15T02:46:58.681Z,2.70
2022-09-15T02:47:46.050Z,2.90
2022-09-15T02:48:32.760Z,2.65
2022-09-15T02:49:20.309Z,2.60
2022-09-15T02:50:07.449Z,2.67
2022-09-15T02:50:54.142Z,2.90
2022-09-15T02:51:40.920Z,2.72
2022-09-15T02:52:27.591Z,2.97
2022-09-15T02:53:14.429Z,2.80
2022-09-15T02:54:01.229Z,3.00
2022-09-15T02:54:48.279Z,3.05
2022-09-15T02:55:35.293Z,2.90
2022-09-15T02:56:22.470Z,3.00
2022-09-15T02:57:09.479Z,2.78
2022-09-15T02:57:59.800Z,3.00
2022-09-15T02:58:46.600Z,2.80
2022-09-15T02:59:52.459Z,2.92
2022-09-15T03:00:39.326Z,3.08
2022-09-15T03:01:31.904Z,3.30
2022-09-15T03:02:20.548Z,2.80
2022-09-15T03:03:07.339Z,3.15
2022-09-15T03:03:54.011Z,3.00
2022-09-15T03:04:40.709Z,3.10
2022-09-15T03:05:29.742Z,2.85
2022-09-15T03:06:16.628Z,3.22
2022-09-15T03:07:03.431Z,3.00
2022-09-15T03:07:50.400Z,3.30
2022-09-15T03:08:37.069Z,3.00
2022-09-15T03:09:23.779Z,3.03
2022-09-15T03:10:12.560Z,3.28
2022-09-15T03:10:59.311Z,3.20
2022-09-15T03:11:45.980Z,3.25
2022-09-15T03:12:41.881Z,3.00
2022-09-15T03:13:28.662Z,3.22
2022-09-15T03:14:15.400Z,2.85
2022-09-15T03:15:02.160Z,3.10
2022-09-15T03:15:48.870Z,3.30
2022-09-15T03:16:36.263Z,3.15
2022-09-15T03:17:23.032Z,3.33
2022-09-15T03:18:09.731Z,3.08
2022-09-15T03:18:57.281Z,3.17
2022-09-15T03:19:44.300Z,3.10
2022-09-15T03:20:31.200Z,3.20
2022-09-15T03:21:18.821Z,3.22
2022-09-15T03:22:05.540Z,3.10
2022-09-15T03:22:52.249Z,3.20
2022-09-15T03:23:39.419Z,2.90
2022-09-15T03:24:26.180Z,3.55
2022-09-15T03:25:13.618Z,3.22
2022-09-15T03:26:00.410Z,3.10
2022-09-15T03:26:48.212Z,3.30
2022-09-15T03:27:35.751Z,3.40
2022-09-15T03:28:22.429Z,3.20
2022-09-15T03:29:09.109Z,3.00
2022-09-15T03:29:55.820Z,3.15
2022-09-15T03:30:42.580Z,3.25
2022-09-15T03:31:29.321Z,3.40
2022-09-15T03:32:16.117Z,3.22
2022-09-15T03:33:02.870Z,3.55
2022-09-15T03:33:49.719Z,3.42
2022-09-15T03:34:36.559Z,2.87
2022-09-15T03:35:23.240Z,3.75
2022-09-15T03:36:10.281Z,3.78
2022-09-15T03:36:56.959Z,3.40
2022-09-15T03:37:43.679Z,3.50
2022-09-15T03:38:31.070Z,3.40
2022-09-15T03:39:17.859Z,3.53
2022-09-15T03:40:05.394Z,3.42
2022-09-15T03:41:02.433Z,3.62
2022-09-15T03:41:49.190Z,3.70
2022-09-15T03:42:35.979Z,3.53
2022-09-15T03:43:22.742Z,3.70
2022-09-15T03:44:09.456Z,3.70
2022-09-15T03:44:56.179Z,3.70
2022-09-15T03:45:43.074Z,3.80
2022-09-15T03:46:29.840Z,3.62
2022-09-15T03:47:16.840Z,3.70
2022-09-15T03:48:06.929Z,4.00
2022-09-15T03:48:53.819Z,4.15
2022-09-15T03:49:40.699Z,3.67
2022-09-15T03:50:27.338Z,3.97
2022-09-15T03:51:14.480Z,3.67
2022-09-15T03:52:01.404Z,3.83
2022-09-15T03:52:48.110Z,3.80
2022-09-15T03:53:35.871Z,4.25
2022-09-15T03:54:22.559Z,3.60
2022-09-15T03:55:09.589Z,4.10
2022-09-15T03:55:56.270Z,3.97
2022-09-15T03:56:43.161Z,4.03
2022-09-15T03:57:29.882Z,4.43
2022-09-15T03:58:17.783Z,3.92
2022-09-15T03:59:08.270Z,4.12
2022-09-15T04:00:41.642Z,4.03
2022-09-15T04:01:29.820Z,4.15
2022-09-15T04:02:16.589Z,4.60
2022-09-15T04:03:03.593Z,4.20
2022-09-15T04:03:51.525Z,4.32
2022-09-15T04:04:38.482Z,4.45
2022-09-15T04:05:25.221Z,4.10
2022-09-15T04:06:12.071Z,4.32
2022-09-15T04:06:58.745Z,4.50
2022-09-15T04:07:45.514Z,4.28
2022-09-15T04:08:32.390Z,4.43
2022-09-15T04:09:20.470Z,3.90
2022-09-15T04:10:08.175Z,4.72
2022-09-15T04:10:55.179Z,4.50
2022-09-15T04:11:42.881Z,4.50
2022-09-15T04:12:32.253Z,4.53
2022-09-15T04:13:19.090Z,4.57
2022-09-15T04:14:05.810Z,3.97
2022-09-15T04:14:52.637Z,4.05
2022-09-15T04:15:41.421Z,6.03
2022-09-15T04:16:28.511Z,4.80
2022-09-15T04:17:16.339Z,4.35
2022-09-15T04:18:04.280Z,4.53
2022-09-15T04:18:52.260Z,4.65
2022-09-15T04:19:39.389Z,4.22
2022-09-15T04:20:26.040Z,4.80
2022-09-15T04:21:15.929Z,4.57
2022-09-15T04:22:02.620Z,4.60
2022-09-15T04:22:49.530Z,4.35
2022-09-15T04:23:36.260Z,4.53
2022-09-15T04:24:23.020Z,4.18
2022-09-15T04:25:10.000Z,4.53
2022-09-15T04:26:05.059Z,4.70
2022-09-15T04:26:51.740Z,4.62
2022-09-15T04:27:38.846Z,4.35
2022-09-15T04:28:26.573Z,4.95
2022-09-15T04:29:15.529Z,4.55
2022-09-15T04:30:02.557Z,4.72
2022-09-15T04:30:49.289Z,4.95
2022-09-15T04:31:36.131Z,4.55
2022-09-15T04:32:22.866Z,4.70
2022-09-15T04:33:09.609Z,4.90
2022-09-15T04:33:57.299Z,4.97
2022-09-15T04:34:44.101Z,4.90
2022-09-15T04:35:30.898Z,4.50
2022-09-15T04:36:21.232Z,4.72
2022-09-15T04:37:07.930Z,5.15
2022-09-15T04:37:54.860Z,4.82
2022-09-15T04:38:42.734Z,4.93
2022-09-15T04:39:29.691Z,5.20
2022-09-15T04:40:16.437Z,5.18
2022-09-15T04:41:04.180Z,5.15
2022-09-15T04:41:50.811Z,4.62
2022-09-15T04:42:37.579Z,6.35
2022-09-15T04:43:25.300Z,5.20
2022-09-15T04:44:12.039Z,5.28
2022-09-15T04:44:58.780Z,5.18
2022-09-15T04:45:45.510Z,5.07
2022-09-15T04:46:32.455Z,4.70
2022-09-15T04:47:19.632Z,4.80
2022-09-15T04:48:06.320Z,5.50
2022-09-15T04:48:53.020Z,5.15
2022-09-15T04:49:39.870Z,5.22
2022-09-15T04:50:26.599Z,4.70
2022-09-15T04:51:16.159Z,5.57
2022-09-15T04:52:06.601Z,5.22
2022-09-15T04:52:55.809Z,5.43
2022-09-15T04:53:43.120Z,5.00
2022-09-15T04:54:29.810Z,4.97
2022-09-15T04:55:16.683Z,5.10
2022-09-15T04:56:08.781Z,5.05
2022-09-15T04:56:55.550Z,5.10
2022-09-15T04:57:42.310Z,5.40
2022-09-15T04:58:29.059Z,5.43
2022-09-15T04:59:17.009Z,5.60
2022-09-15T05:00:06.720Z,4.70
2022-09-15T05:00:53.641Z,5.12
2022-09-15T05:01:40.563Z,4.85
2022-09-15T05:02:27.440Z,4.70
2022-09-15T05:03:14.378Z,5.40
2022-09-15T05:04:04.149Z,4.68
2022-09-15T05:04:51.698Z,5.12
2022-09-15T05:05:38.741Z,5.07
2022-09-15T05:06:30.110Z,5.37
2022-09-15T05:07:17.001Z,5.60
2022-09-15T05:08:04.246Z,5.75
2022-09-15T05:08:52.973Z,5.03
2022-09-15T05:09:39.880Z,5.35
2022-09-15T05:10:28.040Z,5.28
2022-09-15T05:11:15.579Z,5.20
2022-09-15T05:12:02.869Z,5.10
2022-09-15T05:12:49.620Z,5.40
2022-09-15T05:13:37.439Z,5.10
2022-09-15T05:14:24.089Z,5.47
2022-09-15T05:15:11.290Z,5.05
2022-09-15T05:16:04.520Z,5.12
2022-09-15T05:16:51.322Z,4.97
2022-09-15T05:17:38.093Z,5.30
2022-09-15T05:18:24.819Z,5.22
2022-09-15T05:19:13.512Z,4.95
2022-09-15T05:20:00.860Z,6.15
2022-09-15T05:20:47.629Z,4.80
2022-09-15T05:21:34.290Z,4.97
2022-09-15T05:22:21.002Z,4.95
2022-09-15T05:23:07.669Z,5.32
2022-09-15T05:23:54.472Z,5.30
2022-09-15T05:24:41.259Z,5.00
2022-09-15T05:25:28.420Z,5.22
2022-09-15T05:26:20.520Z,5.07
2022-09-15T05:27:07.359Z,4.90
2022-09-15T05:27:54.153Z,5.90
2022-09-15T05:28:41.255Z,4.87
2022-09-15T05:29:28.036Z,4.95
2022-09-15T05:30:36.287Z,5.25
2022-09-15T05:31:24.852Z,5.47
2022-09-15T05:32:11.658Z,5.40
2022-09-15T05:32:58.370Z,5.50
2022-09-15T05:33:46.311Z,5.25
2022-09-15T05:34:33.030Z,5.57
2022-09-15T05:35:20.129Z,5.30
2022-09-15T05:36:07.451Z,4.93
2022-09-15T05:36:54.079Z,5.43
2022-09-15T05:37:40.760Z,5.28
2022-09-15T05:38:29.740Z,4.95
2022-09-15T05:39:16.620Z,5.00
2022-09-15T05:40:08.282Z,4.90
2022-09-15T05:40:56.039Z,5.05
2022-09-15T05:41:42.781Z,4.95
2022-09-15T05:42:30.580Z,5.28
2022-09-15T05:43:18.532Z,4.93
2022-09-15T05:44:05.428Z,5.40
2022-09-15T05:44:52.099Z,4.90
2022-09-15T05:45:38.871Z,5.20
2022-09-15T05:46:26.444Z,5.28
2022-09-15T05:47:13.300Z,5.22
2022-09-15T05:48:00.009Z,5.30
2022-09-15T05:48:47.229Z,4.82
2022-09-15T05:49:34.130Z,5.50
2022-09-15T05:50:20.900Z,5.28
2022-09-15T05:51:08.071Z,5.53
2022-09-15T05:51:54.762Z,5.47
2022-09-15T05:52:41.512Z,5.00
2022-09-15T05:53:28.510Z,5.50
2022-09-15T05:54:15.232Z,5.47
2022-09-15T05:55:01.959Z,5.43
2022-09-15T05:55:49.280Z,5.37
2022-09-15T05:56:36.068Z,5.18
2022-09-15T05:57:22.851Z,5.20
2022-09-15T05:58:09.902Z,5.95
2022-09-15T05:58:57.187Z,5.30
2022-09-15T05:59:44.140Z,5.32
2022-09-15T06:00:30.850Z,6.18
2022-09-15T06:01:23.053Z,5.40
2022-09-15T06:02:11.468Z,5.50
2022-09-15T06:02:58.257Z,5.68
2022-09-15T06:03:45.854Z,5.93
2022-09-15T06:04:34.290Z,5.78
2022-09-15T06:05:21.092Z,5.72
2022-09-15T06:06:08.220Z,5.62
2022-09-15T06:06:54.994Z,5.30
2022-09-15T06:07:41.790Z,5.87
2022-09-15T06:08:33.301Z,5.12
2022-09-15T06:09:20.120Z,4.97
2022-09-15T06:10:07.519Z,4.97
2022-09-15T06:10:54.218Z,4.95
2022-09-15T06:11:41.147Z,5.18
2022-09-15T06:12:27.961Z,5.47
2022-09-15T06:13:15.260Z,5.68
2022-09-15T06:14:03.447Z,5.65
2022-09-15T06:14:51.217Z,5.15
2022-09-15T06:15:37.909Z,5.82
2022-09-15T06:16:25.430Z,5.10
2022-09-15T06:17:12.280Z,5.28
2022-09-15T06:17:59.031Z,5.43
2022-09-15T06:18:46.949Z,5.90
2022-09-15T06:19:33.664Z,4.93
2022-09-15T06:20:21.029Z,5.05
2022-09-15T06:21:10.971Z,5.20
2022-09-15T06:21:57.721Z,5.37
2022-09-15T06:22:45.939Z,4.97
2022-09-15T06:23:32.783Z,5.03
2022-09-15T06:24:19.756Z,5.18
2022-09-15T06:25:07.245Z,4.93
2022-09-15T06:25:53.980Z,4.80
2022-09-15T06:26:40.744Z,5.22
2022-09-15T06:27:27.500Z,5.20
2022-09-15T06:28:14.259Z,5.40
2022-09-15T06:29:02.481Z,4.90
2022-09-15T06:29:49.170Z,5.00
2022-09-15T06:30:39.540Z,4.78
2022-09-15T06:31:28.124Z,4.90
2022-09-15T06:32:15.022Z,4.95
2022-09-15T06:33:01.810Z,5.32
2022-09-15T06:33:53.535Z,4.80
2022-09-15T06:34:40.459Z,4.53
2022-09-15T06:35:27.240Z,5.40
2022-09-15T06:36:15.220Z,5.00
2022-09-15T06:37:01.879Z,4.90
2022-09-15T06:37:48.661Z,5.07
2022-09-15T06:38:35.410Z,5.03
2022-09-15T06:39:22.131Z,4.80
2022-09-15T06:40:09.414Z,4.85
2022-09-15T06:40:57.760Z,5.10
2022-09-15T06:42:01.930Z,5.30
2022-09-15T06:42:55.091Z,5.03
2022-09-15T06:43:42.425Z,5.43
2022-09-15T06:44:29.480Z,5.00
2022-09-15T06:45:16.190Z,4.95
2022-09-15T06:46:09.317Z,5.00
2022-09-15T06:46:56.100Z,4.82
2022-09-15T06:47:42.791Z,5.55
2022-09-15T06:48:30.347Z,4.90
2022-09-15T06:49:17.374Z,5.10
2022-09-15T06:50:05.205Z,5.30
2022-09-15T06:50:55.512Z,4.87
2022-09-15T06:51:42.426Z,5.10
2022-09-15T06:52:29.249Z,5.25
2022-09-15T06:53:16.002Z,4.80
2022-09-15T06:54:03.480Z,5.00
2022-09-15T06:54:50.200Z,4.70
2022-09-15T06:55:36.843Z,4.35
2022-09-15T06:56:24.140Z,5.00
2022-09-15T06:57:10.880Z,4.80
2022-09-15T06:57:57.739Z,4.78
2022-09-15T06:58:45.323Z,4.65
2022-09-15T06:59:32.099Z,4.72
2022-09-15T07:00:20.299Z,4.90
2022-09-15T07:01:13.229Z,4.80
2022-09-15T07:02:04.727Z,4.65
2022-09-15T07:02:52.213Z,4.80
2022-09-15T07:03:40.573Z,5.10
2022-09-15T07:04:27.511Z,5.07
2022-09-15T07:05:14.362Z,5.05
2022-09-15T07:06:01.093Z,4.60
2022-09-15T07:06:48.401Z,4.70
2022-09-15T07:07:35.094Z,5.10
2022-09-15T07:08:21.810Z,5.30
2022-09-15T07:09:08.641Z,5.60
2022-09-15T07:09:55.859Z,5.40
2022-09-15T07:10:46.720Z,5.03
2022-09-15T07:11:33.411Z,5.53
2022-09-15T07:12:20.100Z,5.37
2022-09-15T07:13:06.941Z,5.22
2022-09-15T07:13:53.930Z,5.00
2022-09-15T07:14:40.711Z,4.80
2022-09-15T07:15:27.619Z,4.53
2022-09-15T07:16:15.097Z,5.00
2022-09-15T07:17:01.900Z,5.90
2022-09-15T07:17:48.580Z,4.97
2022-09-15T07:18:39.726Z,5.78
2022-09-15T07:19:29.260Z,6.82
2022-09-15T07:20:16.022Z,5.20
2022-09-15T07:21:05.999Z,6.03
2022-09-15T07:21:53.064Z,5.22
2022-09-15T07:22:52.439Z,5.30
2022-09-15T07:23:40.300Z,5.15
2022-09-15T07:24:27.084Z,5.10
2022-09-15T07:25:13.850Z,5.32
2022-09-15T07:26:20.561Z,5.20
2022-09-15T07:27:08.988Z,5.40
2022-09-15T07:27:55.722Z,5.15
2022-09-15T07:28:44.092Z,5.20
2022-09-15T07:29:33.789Z,4.95
2022-09-15T07:30:22.757Z,5.20
2022-09-15T07:31:11.769Z,5.40
2022-09-15T07:31:58.614Z,5.87
2022-09-15T07:32:45.441Z,5.25
2022-09-15T07:33:32.589Z,5.22
2022-09-15T07:34:19.242Z,4.97
2022-09-15T07:35:06.412Z,5.75
2022-09-15T07:35:53.294Z,5.30
2022-09-15T07:36:40.003Z,5.45
2022-09-15T07:37:26.721Z,5.40
2022-09-15T07:38:13.457Z,5.85
2022-09-15T07:39:00.215Z,5.68
2022-09-15T07:39:47.001Z,5.95
2022-09-15T07:40:34.379Z,5.47
2022-09-15T07:41:26.780Z,5.65
2022-09-15T07:42:15.391Z,5.50
2022-09-15T07:43:02.369Z,6.22
2022-09-15T07:43:50.791Z,5.68
2022-09-15T07:44:37.584Z,5.60
2022-09-15T07:45:24.398Z,5.43
2022-09-15T07:46:11.113Z,6.10
2022-09-15T07:46:57.946Z,5.80
2022-09-15T07:47:44.730Z,5.50
2022-09-15T07:48:33.150Z,5.60
2022-09-15T07:49:19.869Z,6.10
2022-09-15T07:50:07.169Z,5.15
2022-09-15T07:50:53.941Z,5.47
2022-09-15T07:51:40.669Z,5.50
2022-09-15T07:52:27.340Z,5.55
2022-09-15T07:53:14.019Z,5.32
2022-09-15T07:54:00.904Z,5.50
2022-09-15T07:54:47.650Z,5.57
2022-09-15T07:55:34.481Z,5.62
2022-09-15T07:56:22.217Z,5.47
2022-09-15T07:57:08.981Z,5.05
2022-09-15T07:57:59.980Z,4.68
2022-09-15T07:58:47.795Z,5.60
2022-09-15T07:59:37.171Z,4.50
2022-09-15T08:00:26.915Z,5.20
2022-09-15T08:01:17.899Z,5.10
2022-09-15T08:02:04.735Z,5.05
2022-09-15T08:02:51.459Z,4.95
2022-09-15T08:03:42.980Z,5.10
2022-09-15T08:04:29.776Z,5.00
2022-09-15T08:05:16.926Z,4.97
2022-09-15T08:06:04.013Z,5.18
2022-09-15T08:06:52.251Z,5.93
2022-09-15T08:07:40.180Z,5.00
2022-09-15T08:08:27.328Z,4.97
2022-09-15T08:09:17.491Z,5.28
2022-09-15T08:10:04.399Z,4.90
2022-09-15T08:10:51.110Z,6.25
2022-09-15T08:11:37.800Z,5.30
2022-09-15T08:12:24.518Z,4.45
2022-09-15T08:13:11.220Z,4.97
2022-09-15T08:14:01.315Z,4.60
2022-09-15T08:14:48.053Z,4.80
2022-09-15T08:15:37.080Z,4.68
2022-09-15T08:16:24.692Z,4.82
2022-09-15T08:17:11.883Z,4.55
2022-09-15T08:17:58.783Z,4.70
2022-09-15T08:18:46.047Z,4.87
2022-09-15T08:19:34.030Z,4.85
2022-09-15T08:20:21.528Z,4.95
2022-09-15T08:21:10.717Z,4.40
2022-09-15T08:21:58.181Z,4.60
2022-09-15T08:22:45.824Z,5.00
2022-09-15T08:23:33.220Z,4.55
2022-09-15T08:24:20.071Z,4.57
2022-09-15T08:25:07.340Z,4.70
2022-09-15T08:25:54.120Z,4.62
2022-09-15T08:26:42.321Z,4.40
2022-09-15T08:27:29.090Z,4.53
2022-09-15T08:28:15.893Z,4.43
2022-09-15T08:29:02.550Z,4.45
2022-09-15T08:29:49.329Z,4.57
2022-09-15T08:30:36.295Z,4.50
2022-09-15T08:31:24.566Z,4.40
2022-09-15T08:32:12.210Z,4.12
2022-09-15T08:32:58.939Z,4.57
2022-09-15T08:33:50.081Z,4.30
2022-09-15T08:34:36.923Z,4.40
2022-09-15T08:35:23.742Z,4.50
2022-09-15T08:36:13.660Z,4.18
2022-09-15T08:37:00.411Z,4.22
2022-09-15T08:37:47.528Z,4.20
2022-09-15T08:38:34.720Z,4.12
2022-09-15T08:39:21.467Z,4.53
2022-09-15T08:40:15.984Z,3.95
2022-09-15T08:41:34.084Z,4.00
2022-09-15T08:42:24.211Z,3.92
2022-09-15T08:43:19.461Z,4.30
2022-09-15T08:44:30.639Z,3.75
2022-09-15T08:45:24.921Z,4.07
2022-09-15T08:46:16.604Z,4.20
2022-09-15T08:47:35.600Z,4.78
2022-09-15T08:48:27.708Z,4.37
2022-09-15T08:49:50.012Z,4.32
2022-09-15T08:50:42.309Z,3.85
2022-09-15T08:51:34.711Z,4.10
2022-09-15T08:52:44.657Z,4.37
2022-09-15T08:53:45.519Z,3.87
2022-09-15T08:54:33.191Z,3.83
2022-09-15T08:55:39.868Z,4.30
2022-09-15T08:56:29.270Z,4.12
2022-09-15T08:57:20.440Z,3.83
2022-09-15T08:58:13.010Z,4.03
2022-09-15T08:59:00.035Z,3.70
2022-09-15T08:59:46.860Z,4.20
2022-09-15T09:00:33.630Z,4.03
2022-09-15T09:01:27.133Z,3.83
2022-09-15T09:02:23.542Z,3.90
2022-09-15T09:03:24.380Z,4.28
2022-09-15T09:04:19.870Z,4.00
2022-09-15T09:05:43.280Z,4.03
2022-09-15T09:06:57.280Z,4.22
2022-09-15T09:08:01.390Z,4.68
2022-09-15T09:09:12.960Z,4.22
2022-09-15T09:10:12.810Z,4.03
2022-09-15T09:11:19.219Z,4.18
2022-09-15T09:12:47.470Z,4.12
2022-09-15T09:13:42.599Z,4.47
2022-09-15T09:14:35.038Z,3.87
2022-09-15T09:15:27.390Z,3.67
2022-09-15T09:16:26.704Z,3.62
2022-09-15T09:17:13.421Z,3.85
2022-09-15T09:18:20.655Z,5.05
2022-09-15T09:19:35.209Z,3.67
2022-09-15T09:20:29.403Z,4.10
2022-09-15T09:21:36.380Z,3.90
2022-09-15T09:22:30.550Z,4.10
2022-09-15T09:23:23.999Z,3.75
2022-09-15T09:24:17.704Z,4.40
2022-09-15T09:25:21.136Z,5.15
2022-09-15T09:26:12.680Z,4.10
2022-09-15T09:26:59.685Z,3.72
2022-09-15T09:27:46.850Z,3.80
2022-09-15T09:28:40.503Z,4.07
2022-09-15T09:29:51.499Z,4.32
2022-09-15T09:30:39.284Z,4.97
2022-09-15T09:31:27.812Z,5.00
2022-09-15T09:32:25.280Z,4.15
2022-09-15T09:33:24.380Z,4.28
2022-09-15T09:34:20.888Z,4.28
2022-09-15T09:35:21.892Z,3.60
2022-09-15T09:36:10.241Z,4.10
2022-09-15T09:37:02.680Z,4.00
2022-09-15T09:37:50.949Z,4.00
2022-09-15T09:38:43.495Z,4.22
2022-09-15T09:39:30.210Z,4.20
2022-09-15T09:40:17.643Z,3.95
2022-09-15T09:41:27.081Z,4.28
2022-09-15T09:42:16.959Z,4.28
2022-09-15T09:43:03.669Z,4.07
2022-09-15T09:43:52.418Z,3.90
2022-09-15T09:44:40.550Z,4.10
2022-09-15T09:45:27.758Z,4.32
2022-09-15T09:46:16.692Z,4.30
2022-09-15T09:47:04.270Z,4.60
2022-09-15T09:47:50.880Z,4.30
2022-09-15T09:48:37.659Z,5.10
2022-09-15T09:49:24.781Z,4.30
2022-09-15T09:50:40.578Z,4.20
2022-09-15T09:51:40.448Z,4.55
2022-09-15T09:52:35.608Z,4.32
2022-09-15T09:53:25.860Z,4.32
2022-09-15T09:54:16.620Z,4.35
2022-09-15T09:55:25.032Z,4.45
2022-09-15T09:56:18.681Z,4.00
2022-09-15T09:57:14.408Z,4.30
2022-09-15T09:58:27.423Z,4.62
2022-09-15T09:59:32.342Z,4.30
2022-09-15T10:00:36.349Z,4.55
2022-09-15T10:01:25.593Z,4.45
2022-09-15T10:02:12.400Z,3.85
2022-09-15T10:03:11.168Z,3.97
2022-09-15T10:04:18.370Z,3.83
2022-09-15T10:05:07.647Z,3.80
2022-09-15T10:06:05.945Z,3.95
2022-09-15T10:06:56.120Z,3.95
2022-09-15T10:07:46.009Z,3.85
2022-09-15T10:08:33.442Z,4.03
2022-09-15T10:09:20.230Z,4.32
2022-09-15T10:10:17.809Z,3.87
2022-09-15T10:11:06.768Z,3.62
2022-09-15T10:11:55.261Z,4.28
2022-09-15T10:12:42.203Z,4.25
2022-09-15T10:13:28.927Z,4.35
2022-09-15T10:14:22.602Z,3.97
2022-09-15T10:15:22.543Z,4.15
2022-09-15T10:16:10.461Z,4.47
2022-09-15T10:17:09.539Z,4.00
2022-09-15T10:17:56.839Z,3.58
2022-09-15T10:18:43.783Z,3.62
2022-09-15T10:19:34.009Z,4.00
2022-09-15T10:20:34.480Z,3.72
2022-09-15T10:21:24.269Z,3.85
2022-09-15T10:22:21.779Z,3.75
2022-09-15T10:23:17.483Z,3.60
2022-09-15T10:24:30.459Z,3.70
2022-09-15T10:25:20.029Z,3.95
2022-09-15T10:26:34.410Z,3.70
2022-09-15T10:27:26.810Z,3.80
2022-09-15T10:28:14.253Z,4.10
2022-09-15T10:29:31.062Z,4.10
2022-09-15T10:30:19.089Z,4.20
2022-09-15T10:31:08.620Z,4.47
2022-09-15T10:31:55.374Z,4.12
2022-09-15T10:32:42.868Z,3.95
2022-09-15T10:33:30.581Z,4.03
2022-09-15T10:34:36.559Z,3.80
2022-09-15T10:35:23.392Z,3.70
2022-09-15T10:36:14.428Z,4.05
2022-09-15T10:37:13.661Z,3.55
2022-09-15T10:38:15.929Z,3.75
2022-09-15T10:39:23.359Z,4.37
2022-09-15T10:40:34.217Z,3.90
2022-09-15T10:41:31.722Z,3.90
2022-09-15T10:42:26.369Z,4.07
2022-09-15T10:43:25.220Z,4.35
2022-09-15T10:44:50.638Z,3.90
2022-09-15T10:45:47.255Z,4.10
2022-09-15T10:46:49.651Z,4.82
2022-09-15T10:48:03.344Z,3.90
2022-09-15T10:49:08.089Z,4.20
2022-09-15T10:50:37.050Z,4.05
2022-09-15T10:51:51.219Z,4.50
2022-09-15T10:53:04.190Z,4.20
2022-09-15T10:54:18.662Z,4.30
2022-09-15T10:55:59.149Z,4.55
2022-09-15T10:56:57.009Z,3.80
2022-09-15T10:57:46.509Z,4.45
2022-09-15T10:58:48.250Z,4.30
2022-09-15T10:59:53.305Z,3.97
2022-09-15T11:00:50.456Z,4.20
2022-09-15T11:01:40.039Z,4.65
2022-09-15T11:02:38.584Z,3.97
2022-09-15T11:03:36.670Z,4.00
2022-09-15T11:04:29.750Z,3.78
2022-09-15T11:05:43.342Z,4.00
2022-09-15T11:07:05.569Z,4.20
2022-09-15T11:08:11.010Z,4.62
2022-09-15T11:09:28.380Z,4.05
2022-09-15T11:10:49.087Z,4.35
2022-09-15T11:11:52.410Z,3.78
2022-09-15T11:13:25.800Z,4.00
2022-09-15T11:14:32.520Z,4.25
2022-09-15T11:15:37.929Z,4.55
2022-09-15T11:16:38.913Z,4.10
2022-09-15T11:17:35.381Z,5.15
2022-09-15T11:18:44.220Z,4.40
2022-09-15T11:19:42.520Z,4.32
2022-09-15T11:20:43.432Z,4.22
2022-09-15T11:21:43.079Z,4.22
2022-09-15T11:22:37.521Z,4.25
2022-09-15T11:23:34.860Z,4.10
2022-09-15T11:24:40.504Z,4.05